createdAt,value
2023-02-15T00:00:13.373Z,24.67
2023-02-15T00:02:41.449Z,25.13
2023-02-15T00:05:09.886Z,27.83
2023-02-15T00:07:37.586Z,26.40
2023-02-15T00:10:06.737Z,27.48
2023-02-15T00:12:34.621Z,28.30
2023-02-15T00:15:02.460Z,28.95
2023-02-15T00:17:30.432Z,27.85
2023-02-15T00:19:58.025Z,30.77
2023-02-15T00:22:26.958Z,30.67
2023-02-15T00:24:54.571Z,31.38
2023-02-15T00:27:22.364Z,31.90
2023-02-15T00:29:50.048Z,33.00
2023-02-15T00:32:17.691Z,31.98
2023-02-15T00:34:45.519Z,30.20
2023-02-15T00:37:13.171Z,32.30
2023-02-15T00:39:40.920Z,32.10
2023-02-15T00:42:08.568Z,35.97
2023-02-15T00:44:36.371Z,38.83
2023-02-15T00:47:04.044Z,31.98
2023-02-15T00:49:31.823Z,31.70
2023-02-15T00:51:59.622Z,30.95
2023-02-15T00:54:27.375Z,28.05
2023-02-15T00:56:55.027Z,27.70
2023-02-15T00:59:22.847Z,30.70
2023-02-15T01:01:50.539Z,32.83
2023-02-15T01:04:20.450Z,31.25
2023-02-15T01:06:48.343Z,24.20
2023-02-15T01:09:16.045Z,22.70
2023-02-15T01:11:43.764Z,21.65
2023-02-15T01:14:12.060Z,19.15
2023-02-15T01:16:40.182Z,19.88
2023-02-15T01:19:07.934Z,24.38
2023-02-15T01:21:35.701Z,27.55
2023-02-15T01:24:04.510Z,28.40
2023-02-15T01:26:32.132Z,28.00
2023-02-15T01:29:00.191Z,25.27
2023-02-15T01:31:27.975Z,26.42
2023-02-15T01:33:55.828Z,26.58
2023-02-15T01:36:23.536Z,29.35
2023-02-15T01:38:53.061Z,30.10
2023-02-15T01:41:20.923Z,32.03
2023-02-15T01:44:01.065Z,32.42
2023-02-15T01:46:41.187Z,30.67
2023-02-15T01:49:21.577Z,33.60
2023-02-15T01:51:52.232Z,36.95
2023-02-15T01:54:34.923Z,36.53
2023-02-15T01:57:23.597Z,32.78
2023-02-15T01:59:58.076Z,32.88
2023-02-15T02:02:26.089Z,34.35
2023-02-15T02:05:07.255Z,31.15
2023-02-15T02:07:40.518Z,26.63
2023-02-15T02:10:10.615Z,26.42
2023-02-15T02:12:40.374Z,25.77
2023-02-15T02:15:10.928Z,26.38
2023-02-15T02:17:51.075Z,26.30
2023-02-15T02:20:54.415Z,27.52
2023-02-15T02:23:31.271Z,24.08
2023-02-15T02:26:20.432Z,26.92
2023-02-15T02:29:39.825Z,23.90
2023-02-15T02:32:39.092Z,32.42
2023-02-15T02:35:20.358Z,34.85
2023-02-15T02:38:23.392Z,32.33
2023-02-15T02:41:07.744Z,32.65
2023-02-15T02:43:50.115Z,33.08
2023-02-15T02:46:32.674Z,29.00
2023-02-15T02:49:00.457Z,29.73
2023-02-15T02:51:28.160Z,27.23
2023-02-15T02:53:59.904Z,30.25
2023-02-15T02:56:47.599Z,26.83
2023-02-15T02:59:27.660Z,28.80
2023-02-15T03:02:14.872Z,27.80
2023-02-15T03:04:48.924Z,27.67
2023-02-15T03:07:23.141Z,28.27
2023-02-15T03:09:54.756Z,27.75
2023-02-15T03:12:29.398Z,26.98
2023-02-15T03:15:53.098Z,27.33
2023-02-15T03:18:26.925Z,27.77
2023-02-15T03:20:56.771Z,26.33
2023-02-15T03:23:27.574Z,27.80
2023-02-15T03:26:04.707Z,29.98
2023-02-15T03:28:44.025Z,29.58
2023-02-15T03:31:15.146Z,29.85
2023-02-15T03:33:56.485Z,30.80
2023-02-15T03:36:57.791Z,32.03
2023-02-15T03:39:53.985Z,30.70
2023-02-15T03:42:33.695Z,32.28
2023-02-15T03:45:12.941Z,33.55
2023-02-15T03:47:45.992Z,31.95
2023-02-15T03:50:51.125Z,32.40
2023-02-15T03:53:22.354Z,28.48
2023-02-15T03:55:54.973Z,26.23
2023-02-15T03:58:41.466Z,25.00
2023-02-15T04:01:47.168Z,27.35
2023-02-15T04:04:25.617Z,29.33
2023-02-15T04:06:53.639Z,30.63
2023-02-15T04:09:39.964Z,30.17
2023-02-15T04:12:07.766Z,30.50
2023-02-15T04:15:08.270Z,29.73
2023-02-15T04:17:38.660Z,30.20
2023-02-15T04:20:25.876Z,30.05
2023-02-15T04:23:12.003Z,27.55
2023-02-15T04:25:39.745Z,33.53
2023-02-15T04:28:08.796Z,31.88
2023-02-15T04:30:36.772Z,31.60
2023-02-15T04:33:04.838Z,29.52
2023-02-15T04:35:34.527Z,30.73
2023-02-15T04:38:02.364Z,31.05
2023-02-15T04:40:30.121Z,28.65
2023-02-15T04:42:57.755Z,31.20
2023-02-15T04:45:25.428Z,31.15
2023-02-15T04:47:53.225Z,30.98
2023-02-15T04:50:20.965Z,31.58
2023-02-15T04:52:48.625Z,33.42
2023-02-15T04:55:16.402Z,31.27
2023-02-15T04:57:44.141Z,30.60
2023-02-15T05:00:12.703Z,31.58
2023-02-15T05:02:40.380Z,31.05
2023-02-15T05:05:10.459Z,29.67
2023-02-15T05:07:38.207Z,28.08
2023-02-15T05:10:06.904Z,29.40
2023-02-15T05:12:34.528Z,29.63
2023-02-15T05:15:02.510Z,30.55
2023-02-15T05:17:30.140Z,30.90
2023-02-15T05:19:57.851Z,33.40
2023-02-15T05:22:25.494Z,32.63
2023-02-15T05:25:12.229Z,30.85
2023-02-15T05:27:58.533Z,28.65
2023-02-15T05:30:26.404Z,24.70
2023-02-15T05:32:54.190Z,27.02
2023-02-15T05:35:21.953Z,27.23
2023-02-15T05:37:49.541Z,30.02
2023-02-15T05:40:17.340Z,29.65
2023-02-15T05:42:45.023Z,30.75
2023-02-15T05:45:12.841Z,29.25
2023-02-15T05:47:40.594Z,29.85
2023-02-15T05:50:09.321Z,28.33
2023-02-15T05:52:37.101Z,29.02
2023-02-15T05:55:06.646Z,27.33
2023-02-15T05:57:34.570Z,28.17
2023-02-15T06:00:05.340Z,29.02
2023-02-15T06:02:39.658Z,30.00
2023-02-15T06:05:12.781Z,28.45
2023-02-15T06:07:40.585Z,28.08
2023-02-15T06:10:08.697Z,28.38
2023-02-15T06:12:36.339Z,29.40
2023-02-15T06:15:04.844Z,28.70
2023-02-15T06:17:32.467Z,29.30
2023-02-15T06:20:00.192Z,31.00
2023-02-15T06:22:27.824Z,29.00
2023-02-15T06:24:55.535Z,24.90
2023-02-15T06:27:23.175Z,22.90
2023-02-15T06:29:50.791Z,22.50
2023-02-15T06:32:18.596Z,26.42
2023-02-15T06:34:47.523Z,26.05
2023-02-15T06:37:16.445Z,28.73
2023-02-15T06:39:45.183Z,28.63
2023-02-15T06:42:12.873Z,29.17
2023-02-15T06:44:40.693Z,29.15
2023-02-15T06:47:08.343Z,29.73
2023-02-15T06:49:35.942Z,29.45
2023-02-15T06:52:04.531Z,30.80
2023-02-15T06:54:32.338Z,29.38
2023-02-15T06:57:00.036Z,31.80
2023-02-15T06:59:27.710Z,29.92
2023-02-15T07:01:55.519Z,30.45
2023-02-15T07:04:23.484Z,31.35
2023-02-15T07:06:53.777Z,30.48
2023-02-15T07:09:22.272Z,30.17
2023-02-15T07:12:08.694Z,31.60
2023-02-15T07:14:36.817Z,30.42
2023-02-15T07:17:05.263Z,28.95
2023-02-15T07:19:33.798Z,30.73
2023-02-15T07:22:01.456Z,30.60
2023-02-15T07:24:29.090Z,29.75
2023-02-15T07:26:56.764Z,31.67
2023-02-15T07:29:25.275Z,32.78
2023-02-15T07:31:53.131Z,29.92
2023-02-15T07:34:20.928Z,31.63
2023-02-15T07:36:48.654Z,32.92
2023-02-15T07:39:16.334Z,32.33
2023-02-15T07:41:44.008Z,34.08
2023-02-15T07:44:14.894Z,33.10
2023-02-15T07:46:42.961Z,32.55
2023-02-15T07:49:10.717Z,32.65
2023-02-15T07:51:38.426Z,33.47
2023-02-15T07:54:06.422Z,32.75
2023-02-15T07:56:35.829Z,32.22
2023-02-15T07:59:06.096Z,33.97
2023-02-15T08:01:37.368Z,33.22
2023-02-15T08:04:07.193Z,35.30
2023-02-15T08:06:37.264Z,35.25
2023-02-15T08:09:09.665Z,35.67
2023-02-15T08:11:40.775Z,36.63
2023-02-15T08:14:23.142Z,37.08
2023-02-15T08:16:56.847Z,38.67
2023-02-15T08:19:30.855Z,39.38
2023-02-15T08:22:07.847Z,38.97
2023-02-15T08:24:38.209Z,39.70
2023-02-15T08:27:12.036Z,39.33
2023-02-15T08:29:40.466Z,41.83
2023-02-15T08:32:11.598Z,40.30
2023-02-15T08:34:42.118Z,40.83
2023-02-15T08:37:10.388Z,41.90
2023-02-15T08:39:38.228Z,41.13
2023-02-15T08:42:05.993Z,41.88
2023-02-15T08:44:33.663Z,42.55
2023-02-15T08:47:04.869Z,40.08
2023-02-15T08:49:33.503Z,42.80
2023-02-15T08:52:01.166Z,42.90
2023-02-15T08:54:28.805Z,44.47
2023-02-15T08:56:56.414Z,41.80
2023-02-15T08:59:25.171Z,41.20
2023-02-15T09:01:53.833Z,39.88
2023-02-15T09:04:22.696Z,43.25
2023-02-15T09:06:51.670Z,42.35
2023-02-15T09:09:20.955Z,43.40
2023-02-15T09:11:56.778Z,41.92
2023-02-15T09:14:27.669Z,40.78
2023-02-15T09:16:56.134Z,40.58
2023-02-15T09:19:25.414Z,41.45
2023-02-15T09:21:53.348Z,40.67
2023-02-15T09:24:21.326Z,39.97
2023-02-15T09:26:49.934Z,39.78
2023-02-15T09:29:19.759Z,41.42
2023-02-15T09:31:50.970Z,37.78
2023-02-15T09:34:22.277Z,39.65
2023-02-15T09:36:51.101Z,39.88
2023-02-15T09:39:25.849Z,38.85
2023-02-15T09:41:54.855Z,38.77
2023-02-15T09:44:50.081Z,38.50
2023-02-15T09:48:10.453Z,36.03
2023-02-15T09:51:20.183Z,36.95
2023-02-15T09:54:09.356Z,36.78
2023-02-15T09:56:49.913Z,36.08
2023-02-15T09:59:49.088Z,35.55
2023-02-15T10:02:39.010Z,36.05
2023-02-15T10:05:30.577Z,34.60
2023-02-15T10:08:48.759Z,35.45
2023-02-15T10:11:42.947Z,37.28
2023-02-15T10:14:41.837Z,36.20
2023-02-15T10:17:44.303Z,35.65
2023-02-15T10:20:31.941Z,35.28
2023-02-15T10:23:27.031Z,35.80
2023-02-15T10:26:12.299Z,34.25
2023-02-15T10:29:04.090Z,34.87
2023-02-15T10:31:54.243Z,33.80
2023-02-15T10:34:52.324Z,33.38
2023-02-15T10:37:46.516Z,32.70
2023-02-15T10:41:01.762Z,35.22
2023-02-15T10:44:15.015Z,34.45
2023-02-15T10:47:07.776Z,31.83
2023-02-15T10:49:57.313Z,32.38
2023-02-15T10:52:59.174Z,33.03
2023-02-15T10:55:30.210Z,32.40
2023-02-15T10:58:19.569Z,31.10
2023-02-15T11:01:09.100Z,30.48
2023-02-15T11:04:17.493Z,31.20
2023-02-15T11:06:59.900Z,30.17
2023-02-15T11:09:39.049Z,30.80
2023-02-15T11:12:14.768Z,30.38
2023-02-15T11:17:26.872Z,28.55
2023-02-15T11:20:17.073Z,28.95
2023-02-15T11:22:50.057Z,28.63
2023-02-15T11:25:26.853Z,27.95
2023-02-15T11:27:55.672Z,28.20
2023-02-15T11:30:30.350Z,28.48
2023-02-15T11:33:02.960Z,28.95
2023-02-15T11:36:02.852Z,29.27
2023-02-15T11:38:33.950Z,27.88
2023-02-15T11:41:11.308Z,29.05
2023-02-15T11:43:59.013Z,28.02
2023-02-15T11:46:26.774Z,27.98
2023-02-15T11:48:54.477Z,29.13
2023-02-15T11:51:24.325Z,29.33
2023-02-15T11:53:52.844Z,29.83
2023-02-15T11:56:25.393Z,28.73
2023-02-15T11:59:11.977Z,28.23
2023-02-15T12:01:44.898Z,27.83
2023-02-15T12:04:22.997Z,29.20
2023-02-15T12:07:23.695Z,29.63
2023-02-15T12:10:12.861Z,26.58
2023-02-15T12:12:41.167Z,29.73
2023-02-15T12:15:11.978Z,28.48
2023-02-15T12:17:59.925Z,29.02
2023-02-15T12:20:33.320Z,29.25
2023-02-15T12:23:15.403Z,28.98
2023-02-15T12:25:54.538Z,29.65
2023-02-15T12:28:40.709Z,28.85
2023-02-15T12:31:40.663Z,29.38
2023-02-15T12:34:20.331Z,31.00
2023-02-15T12:36:58.818Z,32.40
2023-02-15T12:39:32.450Z,30.17
2023-02-15T12:42:05.906Z,31.00
2023-02-15T12:44:38.161Z,32.50
2023-02-15T12:47:19.194Z,32.15
2023-02-15T12:50:12.606Z,32.03
2023-02-15T12:52:41.049Z,32.42
2023-02-15T12:55:23.830Z,32.00
2023-02-15T12:58:20.866Z,30.35
2023-02-15T13:00:48.880Z,30.38
2023-02-15T13:03:22.727Z,31.27
2023-02-15T13:05:54.626Z,30.35
2023-02-15T13:08:27.092Z,29.70
2023-02-15T13:11:11.123Z,31.17
2023-02-15T13:14:25.568Z,30.30
2023-02-15T13:16:59.406Z,30.08
2023-02-15T13:19:46.332Z,31.05
2023-02-15T13:22:43.997Z,28.70
2023-02-15T13:25:41.172Z,30.48
2023-02-15T13:28:15.972Z,30.70
2023-02-15T13:30:47.506Z,30.90
2023-02-15T13:33:37.524Z,29.95
2023-02-15T13:36:23.411Z,29.13
2023-02-15T13:39:02.712Z,31.15
2023-02-15T13:41:57.523Z,32.70
2023-02-15T13:44:52.427Z,30.95
2023-02-15T13:47:33.021Z,29.10
2023-02-15T13:50:47.135Z,26.70
2023-02-15T13:53:36.317Z,27.83
2023-02-15T13:56:18.151Z,28.95
2023-02-15T13:59:22.788Z,28.25
2023-02-15T14:02:12.970Z,29.65
2023-02-15T14:05:14.700Z,27.40
2023-02-15T14:08:08.752Z,28.73
2023-02-15T14:10:47.706Z,28.27
2023-02-15T14:13:31.432Z,28.55
2023-02-15T14:17:04.266Z,28.80
2023-02-15T14:19:45.792Z,28.95
2023-02-15T14:22:42.907Z,29.08
2023-02-15T14:25:34.894Z,27.25
2023-02-15T14:28:32.477Z,29.00
2023-02-15T14:31:01.442Z,29.60
2023-02-15T14:33:37.066Z,29.00
2023-02-15T14:36:08.843Z,27.67
2023-02-15T14:38:39.443Z,28.38
2023-02-15T14:41:17.753Z,26.75
2023-02-15T14:44:38.839Z,27.92
2023-02-15T14:47:14.205Z,27.60
2023-02-15T14:49:42.232Z,28.65
2023-02-15T14:52:13.581Z,28.13
2023-02-15T14:54:41.214Z,29.80
2023-02-15T14:57:08.923Z,30.83
2023-02-15T14:59:44.512Z,30.98
2023-02-15T15:02:19.920Z,32.22
2023-02-15T15:04:56.824Z,30.83
2023-02-15T15:07:51.002Z,30.88
2023-02-15T15:10:18.693Z,30.48
2023-02-15T15:12:51.726Z,30.98
2023-02-15T15:15:28.472Z,30.45
2023-02-15T15:18:00.238Z,30.33
2023-02-15T15:20:28.152Z,29.95
2023-02-15T15:23:17.441Z,31.13
2023-02-15T15:25:50.428Z,30.55
2023-02-15T15:28:36.133Z,31.38
2023-02-15T15:31:28.856Z,30.95
2023-02-15T15:34:20.568Z,30.92
2023-02-15T15:37:48.580Z,30.95
2023-02-15T15:43:42.290Z,31.35
2023-02-15T15:48:54.245Z,28.92
2023-02-15T15:51:33.009Z,30.20
2023-02-15T15:54:03.606Z,30.58
2023-02-15T15:56:36.036Z,30.08
2023-02-15T15:59:07.949Z,30.25
2023-02-15T16:01:45.910Z,30.20
2023-02-15T16:04:35.696Z,30.38
2023-02-15T16:07:18.715Z,29.27
2023-02-15T16:10:04.911Z,29.48
2023-02-15T16:15:15.321Z,29.45
2023-02-15T16:17:47.283Z,29.02
2023-02-15T16:20:24.048Z,30.50
2023-02-15T16:23:11.905Z,29.27
2023-02-15T16:26:30.384Z,29.92
2023-02-15T16:28:59.596Z,28.52
2023-02-15T16:31:27.396Z,30.77
2023-02-15T16:33:56.673Z,30.08
2023-02-15T16:36:27.541Z,29.17
2023-02-15T16:38:58.020Z,29.10
2023-02-15T16:41:30.689Z,29.83
2023-02-15T16:44:06.585Z,31.40
2023-02-15T16:46:37.790Z,29.52
2023-02-15T16:49:17.389Z,30.65
2023-02-15T16:51:46.421Z,27.92
2023-02-15T16:54:22.160Z,30.42
2023-02-15T16:59:44.468Z,27.88
2023-02-15T17:02:55.494Z,28.42
2023-02-15T17:05:23.590Z,29.50
2023-02-15T17:08:32.734Z,30.85
2023-02-15T17:11:00.776Z,29.77
2023-02-15T17:13:29.974Z,30.25
2023-02-15T17:16:00.928Z,29.20
2023-02-15T17:18:35.449Z,28.73
2023-02-15T17:21:18.323Z,30.92
2023-02-15T17:23:49.719Z,28.05
2023-02-15T17:26:24.594Z,29.88
2023-02-15T17:28:57.417Z,30.88
2023-02-15T17:31:30.508Z,30.13
2023-02-15T17:33:59.690Z,28.50
2023-02-15T17:36:31.155Z,30.58
2023-02-15T17:38:59.285Z,29.92
2023-02-15T17:41:33.752Z,29.58
2023-02-15T17:44:05.784Z,30.40
2023-02-15T17:46:39.145Z,29.23
2023-02-15T17:49:07.918Z,29.65
2023-02-15T17:51:36.149Z,29.30
2023-02-15T17:54:22.843Z,28.27
2023-02-15T17:56:50.507Z,30.65
2023-02-15T17:59:18.147Z,29.48
2023-02-15T18:02:07.374Z,29.27
2023-02-15T18:04:55.831Z,30.95
2023-02-15T18:07:42.586Z,29.77
2023-02-15T18:10:34.780Z,29.63
2023-02-15T18:13:03.436Z,30.58
2023-02-15T18:15:31.242Z,28.85
2023-02-15T18:17:59.155Z,29.90
2023-02-15T18:20:34.983Z,31.67
2023-02-15T18:23:03.863Z,33.00
2023-02-15T18:25:31.653Z,30.23
2023-02-15T18:27:59.305Z,28.48
2023-02-15T18:30:27.533Z,30.52
2023-02-15T18:32:57.468Z,40.15
2023-02-15T18:35:29.220Z,34.75
2023-02-15T18:37:57.471Z,33.72
2023-02-15T18:40:29.589Z,32.83
2023-02-15T18:42:57.600Z,32.97
2023-02-15T18:45:36.214Z,34.70
2023-02-15T18:48:04.549Z,34.35
2023-02-15T18:50:35.245Z,33.70
2023-02-15T18:53:05.202Z,35.03
2023-02-15T18:55:35.414Z,37.17
2023-02-15T18:58:03.923Z,34.28
2023-02-15T19:00:34.239Z,35.40
2023-02-15T19:03:03.746Z,37.03
2023-02-15T19:05:32.922Z,35.53
2023-02-15T19:08:02.060Z,35.25
2023-02-15T19:10:33.319Z,34.75
2023-02-15T19:13:00.998Z,36.63
2023-02-15T19:15:30.908Z,35.95
2023-02-15T19:17:58.654Z,35.88
2023-02-15T19:20:32.383Z,35.40
2023-02-15T19:23:01.893Z,36.58
2023-02-15T19:25:32.530Z,35.20
2023-02-15T19:28:01.591Z,35.13
2023-02-15T19:30:31.677Z,34.72
2023-02-15T19:33:00.341Z,36.40
2023-02-15T19:35:33.620Z,37.45
2023-02-15T19:38:06.032Z,37.28
2023-02-15T19:40:35.764Z,36.53
2023-02-15T19:43:04.483Z,35.25
2023-02-15T19:45:32.871Z,37.22
2023-02-15T19:48:06.466Z,34.35
2023-02-15T19:50:35.408Z,35.55
2023-02-15T19:53:04.016Z,36.67
2023-02-15T19:55:35.446Z,36.47
2023-02-15T19:58:03.682Z,37.47
2023-02-15T20:00:33.927Z,36.08
2023-02-15T20:03:01.720Z,38.90
2023-02-15T20:05:31.799Z,38.10
2023-02-15T20:07:59.936Z,38.15
2023-02-15T20:10:30.864Z,37.80
2023-02-15T20:12:59.216Z,38.92
2023-02-15T20:15:34.505Z,39.67
2023-02-15T20:18:04.466Z,37.92
2023-02-15T20:20:47.596Z,36.08
2023-02-15T20:23:31.639Z,37.40
2023-02-15T20:26:02.699Z,39.08
2023-02-15T20:28:31.846Z,38.78
2023-02-15T20:30:59.661Z,39.08
2023-02-15T20:33:27.422Z,38.67
2023-02-15T20:35:55.209Z,40.08
2023-02-15T20:38:28.129Z,39.80
2023-02-15T20:41:17.907Z,40.50
2023-02-15T20:43:45.620Z,38.35
2023-02-15T20:46:13.220Z,40.10
2023-02-15T20:48:41.287Z,41.08
2023-02-15T20:51:18.698Z,40.13
2023-02-15T20:53:47.423Z,40.75
2023-02-15T20:56:21.625Z,41.03
2023-02-15T20:58:51.020Z,40.10
2023-02-15T21:01:22.877Z,41.28
2023-02-15T21:03:51.597Z,39.20
2023-02-15T21:06:19.350Z,41.25
2023-02-15T21:08:47.063Z,42.35
2023-02-15T21:11:23.283Z,40.35
2023-02-15T21:13:51.310Z,41.65
2023-02-15T21:16:19.223Z,41.35
2023-02-15T21:18:46.982Z,39.65
2023-02-15T21:21:23.764Z,41.47
2023-02-15T21:23:53.151Z,42.58
2023-02-15T21:26:23.138Z,40.70
2023-02-15T21:28:51.070Z,41.90
2023-02-15T21:31:25.395Z,40.33
2023-02-15T21:33:53.604Z,40.08
2023-02-15T21:36:25.183Z,41.67
2023-02-15T21:38:53.920Z,40.35
2023-02-15T21:41:42.433Z,41.17
2023-02-15T21:44:44.492Z,41.67
2023-02-15T21:47:45.127Z,38.75
2023-02-15T21:50:43.154Z,39.38
2023-02-15T21:53:20.282Z,39.85
2023-02-15T21:55:48.559Z,39.17
2023-02-15T21:58:24.471Z,40.38
2023-02-15T22:00:57.726Z,40.53
2023-02-15T22:03:31.736Z,40.67
2023-02-15T22:06:00.104Z,39.50
2023-02-15T22:08:27.908Z,40.50
2023-02-15T22:10:56.072Z,41.63
2023-02-15T22:13:31.146Z,40.33
2023-02-15T22:15:59.253Z,41.40
2023-02-15T22:18:33.406Z,38.83
2023-02-15T22:21:03.911Z,38.75
2023-02-15T22:23:32.182Z,39.13
2023-02-15T22:26:15.637Z,39.83
2023-02-15T22:28:43.544Z,37.85
2023-02-15T22:31:15.604Z,38.97
2023-02-15T22:33:44.922Z,37.83
2023-02-15T22:36:30.504Z,39.63
2023-02-15T22:38:58.696Z,40.05
2023-02-15T22:41:30.503Z,37.53
2023-02-15T22:43:58.660Z,37.75
2023-02-15T22:46:27.078Z,39.28
2023-02-15T22:48:54.869Z,39.45
2023-02-15T22:51:24.848Z,38.70
2023-02-15T22:53:53.791Z,37.30
2023-02-15T22:56:38.634Z,39.08
2023-02-15T22:59:14.620Z,38.38
2023-02-15T23:01:42.493Z,39.10
2023-02-15T23:04:20.887Z,39.55
2023-02-15T23:06:49.946Z,39.97
2023-02-15T23:09:17.604Z,39.75
2023-02-15T23:11:46.034Z,38.38
2023-02-15T23:14:27.334Z,37.33
2023-02-15T23:16:55.675Z,38.92
2023-02-15T23:19:23.559Z,38.75
2023-02-15T23:21:51.359Z,39.05
2023-02-15T23:24:22.433Z,37.80
2023-02-15T23:26:51.122Z,38.47
2023-02-15T23:29:22.847Z,37.25
2023-02-15T23:31:53.755Z,36.08
2023-02-15T23:34:29.175Z,37.30
2023-02-15T23:36:57.204Z,38.50
2023-02-15T23:39:47.157Z,39.78
2023-02-15T23:42:19.477Z,37.95
2023-02-15T23:44:48.783Z,38.83
2023-02-15T23:47:42.135Z,40.67
2023-02-15T23:50:26.564Z,38.65
2023-02-15T23:52:56.348Z,39.72
2023-02-15T23:55:31.175Z,37.97
2023-02-15T23:57:59.146Z,39.60
